createdAt,value
2022-11-26T00:00:25.500Z,88.73
2022-11-26T00:02:53.326Z,89.17
2022-11-26T00:05:21.173Z,89.06
2022-11-26T00:07:54.812Z,88.85
2022-11-26T00:10:28.218Z,88.66
2022-11-26T00:12:55.560Z,88.34
2022-11-26T00:15:30.829Z,87.95
2022-11-26T00:17:58.084Z,87.79
2022-11-26T00:20:30.367Z,87.80
2022-11-26T00:23:01.333Z,87.87
2022-11-26T00:25:37.383Z,87.49
2022-11-26T00:28:04.061Z,88.69
2022-11-26T00:30:30.416Z,88.32
2022-11-26T00:32:57.977Z,88.29
2022-11-26T00:35:24.480Z,88.23
2022-11-26T00:37:54.115Z,87.68
2022-11-26T00:40:24.755Z,87.90
2022-11-26T00:42:52.308Z,88.03
2022-11-26T00:45:28.495Z,87.52
2022-11-26T00:47:54.912Z,88.40
2022-11-26T00:50:24.367Z,88.48
2022-11-26T00:52:54.319Z,88.21
2022-11-26T00:55:34.193Z,88.50
2022-11-26T00:58:01.378Z,87.77
2022-11-26T01:00:30.100Z,88.11
2022-11-26T01:02:56.888Z,87.88
2022-11-26T01:05:25.507Z,88.79
2022-11-26T01:07:52.876Z,88.33
2022-11-26T01:10:25.983Z,88.15
2022-11-26T01:12:53.449Z,87.81
2022-11-26T01:15:22.395Z,86.64
2022-11-26T01:17:49.851Z,86.25
2022-11-26T01:20:31.222Z,86.42
2022-11-26T01:22:58.620Z,85.88
2022-11-26T01:25:26.415Z,86.24
2022-11-26T01:27:53.366Z,86.79
2022-11-26T01:30:22.951Z,86.65
2022-11-26T01:32:49.532Z,86.97
2022-11-26T01:35:17.662Z,86.67
2022-11-26T01:37:45.165Z,86.27
2022-11-26T01:40:54.941Z,86.08
2022-11-26T01:43:33.195Z,86.35
2022-11-26T01:45:59.562Z,85.91
2022-11-26T01:48:33.612Z,85.93
2022-11-26T01:51:03.047Z,86.07
2022-11-26T01:53:41.886Z,86.06
2022-11-26T01:56:38.927Z,85.72
2022-11-26T01:59:17.601Z,85.72
2022-11-26T02:01:44.129Z,85.46
2022-11-26T02:04:12.870Z,85.91
2022-11-26T02:06:41.011Z,85.58
2022-11-26T02:09:09.085Z,85.88
2022-11-26T02:11:36.036Z,85.60
2022-11-26T02:14:06.502Z,85.94
2022-11-26T02:17:03.465Z,86.03
2022-11-26T02:19:50.271Z,86.40
2022-11-26T02:22:28.707Z,85.71
2022-11-26T02:25:30.431Z,85.94
2022-11-26T02:27:59.808Z,85.99
2022-11-26T02:30:31.649Z,85.79
2022-11-26T02:33:03.937Z,85.90
2022-11-26T02:35:46.278Z,85.56
2022-11-26T02:38:20.817Z,85.24
2022-11-26T02:40:47.616Z,85.66
2022-11-26T02:43:16.419Z,86.17
2022-11-26T02:45:47.617Z,85.41
2022-11-26T02:48:21.370Z,85.74
2022-11-26T02:50:53.267Z,86.10
2022-11-26T02:53:22.298Z,85.33
2022-11-26T02:56:01.137Z,85.20
2022-11-26T02:58:28.236Z,85.13
2022-11-26T03:00:57.027Z,85.47
2022-11-26T03:03:34.697Z,85.66
2022-11-26T03:06:04.764Z,85.79
2022-11-26T03:08:32.650Z,86.10
2022-11-26T03:11:00.097Z,85.98
2022-11-26T03:13:26.596Z,86.36
2022-11-26T03:15:53.134Z,86.18
2022-11-26T03:18:19.562Z,86.27
2022-11-26T03:20:46.028Z,86.05
2022-11-26T03:23:12.488Z,86.54
2022-11-26T03:25:39.024Z,86.93
2022-11-26T03:28:05.576Z,87.46
2022-11-26T03:30:32.365Z,87.21
2022-11-26T03:32:58.806Z,87.25
2022-11-26T03:35:25.338Z,87.84
2022-11-26T03:37:51.811Z,87.56
2022-11-26T03:40:18.345Z,87.90
2022-11-26T03:42:45.003Z,88.05
2022-11-26T03:45:11.964Z,87.75
2022-11-26T03:47:38.953Z,88.28
2022-11-26T03:50:06.609Z,87.75
2022-11-26T03:52:33.094Z,88.02
2022-11-26T03:54:59.447Z,87.45
2022-11-26T03:57:25.791Z,87.96
2022-11-26T03:59:52.125Z,87.56
2022-11-26T04:02:18.628Z,87.63
2022-11-26T04:04:45.392Z,87.27
2022-11-26T04:07:11.835Z,87.37
2022-11-26T04:09:38.235Z,87.18
2022-11-26T04:12:04.742Z,87.56
2022-11-26T04:14:31.101Z,87.28
2022-11-26T04:16:57.618Z,87.41
2022-11-26T04:19:24.152Z,87.41
2022-11-26T04:21:50.537Z,87.25
2022-11-26T04:24:17.022Z,87.88
2022-11-26T04:26:43.488Z,87.39
2022-11-26T04:29:09.829Z,86.88
2022-11-26T04:31:36.519Z,87.60
2022-11-26T04:34:02.999Z,87.97
2022-11-26T04:36:29.375Z,88.34
2022-11-26T04:38:57.316Z,88.32
2022-11-26T04:41:23.767Z,88.28
2022-11-26T04:43:50.158Z,88.16
2022-11-26T04:46:16.743Z,87.64
2022-11-26T04:48:43.225Z,87.86
2022-11-26T04:51:09.620Z,87.47
2022-11-26T04:53:36.005Z,87.82
2022-11-26T04:56:02.371Z,87.82
2022-11-26T04:58:28.725Z,87.67
2022-11-26T05:00:55.156Z,87.79
2022-11-26T05:03:21.595Z,87.23
2022-11-26T05:05:48.033Z,87.76
2022-11-26T05:08:14.841Z,87.37
2022-11-26T05:10:41.564Z,87.37
2022-11-26T05:13:08.047Z,87.72
2022-11-26T05:15:34.457Z,87.94
2022-11-26T05:18:00.819Z,88.09
2022-11-26T05:20:27.473Z,87.61
2022-11-26T05:22:53.875Z,88.18
2022-11-26T05:25:20.423Z,87.55
2022-11-26T05:27:46.783Z,87.74
2022-11-26T05:30:13.649Z,87.84
2022-11-26T05:32:39.995Z,88.11
2022-11-26T05:35:06.740Z,87.76
2022-11-26T05:37:33.184Z,88.15
2022-11-26T05:39:59.515Z,87.40
2022-11-26T05:42:25.882Z,88.27
2022-11-26T05:44:52.247Z,88.18
2022-11-26T05:47:18.658Z,87.63
2022-11-26T05:49:45.006Z,87.92
2022-11-26T05:52:11.504Z,87.75
2022-11-26T05:54:38.244Z,88.75
2022-11-26T05:57:04.745Z,88.54
2022-11-26T05:59:31.122Z,88.32
2022-11-26T06:01:57.536Z,89.05
2022-11-26T06:04:23.966Z,88.85
2022-11-26T06:06:50.314Z,88.43
2022-11-26T06:09:16.826Z,88.82
2022-11-26T06:11:43.197Z,89.04
2022-11-26T06:14:10.522Z,88.96
2022-11-26T06:16:37.224Z,89.20
2022-11-26T06:19:03.658Z,88.81
2022-11-26T06:21:30.032Z,89.36
2022-11-26T06:23:59.511Z,89.00
2022-11-26T06:26:26.664Z,89.68
2022-11-26T06:28:53.141Z,89.32
2022-11-26T06:31:19.726Z,88.65
2022-11-26T06:33:46.322Z,89.17
2022-11-26T06:36:12.747Z,89.18
2022-11-26T06:38:39.088Z,88.68
2022-11-26T06:41:08.004Z,89.04
2022-11-26T06:43:35.593Z,88.83
2022-11-26T06:46:08.243Z,88.37
2022-11-26T06:48:35.911Z,89.01
2022-11-26T06:51:11.050Z,89.25
2022-11-26T06:53:37.723Z,88.79
2022-11-26T06:56:06.710Z,88.83
2022-11-26T06:58:33.523Z,88.63
2022-11-26T07:00:59.913Z,89.10
2022-11-26T07:03:31.872Z,88.83
2022-11-26T07:05:59.687Z,88.46
2022-11-26T07:08:26.177Z,88.27
2022-11-26T07:10:52.560Z,88.11
2022-11-26T07:13:18.954Z,87.87
2022-11-26T07:15:45.430Z,87.62
2022-11-26T07:18:11.812Z,88.19
2022-11-26T07:20:38.345Z,87.62
2022-11-26T07:23:04.755Z,88.00
2022-11-26T07:25:31.382Z,87.65
2022-11-26T07:27:58.209Z,87.55
2022-11-26T07:30:24.748Z,87.43
2022-11-26T07:32:51.092Z,87.34
2022-11-26T07:35:17.500Z,87.77
2022-11-26T07:37:43.863Z,87.75
2022-11-26T07:40:10.480Z,87.77
2022-11-26T07:42:36.871Z,87.63
2022-11-26T07:45:04.523Z,87.17
2022-11-26T07:47:30.986Z,86.99
2022-11-26T07:49:57.354Z,87.12
2022-11-26T07:52:23.710Z,86.66
2022-11-26T07:54:50.091Z,86.96
2022-11-26T07:57:16.516Z,86.88
2022-11-26T07:59:42.871Z,86.64
2022-11-26T08:02:14.561Z,86.16
2022-11-26T08:04:41.313Z,85.60
2022-11-26T08:07:07.944Z,86.29
2022-11-26T08:09:34.496Z,85.97
2022-11-26T08:12:00.866Z,85.87
2022-11-26T08:14:27.243Z,85.40
2022-11-26T08:16:53.653Z,84.97
2022-11-26T08:19:20.133Z,84.12
2022-11-26T08:21:46.492Z,84.63
2022-11-26T08:24:15.739Z,84.08
2022-11-26T08:26:44.499Z,84.60
2022-11-26T08:29:11.652Z,84.03
2022-11-26T08:31:45.306Z,84.23
2022-11-26T08:34:14.984Z,84.07
2022-11-26T08:36:41.751Z,84.66
2022-11-26T08:39:08.930Z,83.87
2022-11-26T08:41:35.305Z,84.49
2022-11-26T08:44:06.709Z,84.19
2022-11-26T08:46:34.474Z,84.13
2022-11-26T08:49:01.127Z,84.39
2022-11-26T08:51:27.481Z,84.11
2022-11-26T08:53:53.851Z,84.51
2022-11-26T08:56:20.780Z,84.45
2022-11-26T08:58:48.750Z,84.00
2022-11-26T09:01:17.199Z,84.02
2022-11-26T09:03:43.880Z,83.89
2022-11-26T09:06:11.063Z,83.54
2022-11-26T09:08:57.202Z,83.49
2022-11-26T09:11:25.758Z,83.24
2022-11-26T09:13:53.382Z,83.91
2022-11-26T09:16:22.998Z,83.35
2022-11-26T09:18:50.348Z,83.11
2022-11-26T09:21:16.933Z,83.69
2022-11-26T09:23:43.476Z,82.44
2022-11-26T09:26:09.853Z,82.90
2022-11-26T09:28:36.347Z,82.74
2022-11-26T09:31:02.891Z,82.37
2022-11-26T09:33:29.965Z,81.83
2022-11-26T09:36:07.693Z,82.05
2022-11-26T09:38:35.176Z,82.47
2022-11-26T09:41:39.928Z,82.14
2022-11-26T09:44:06.237Z,81.70
2022-11-26T09:47:10.117Z,81.47
2022-11-26T09:49:38.606Z,80.37
2022-11-26T09:52:07.768Z,81.17
2022-11-26T09:54:34.635Z,79.76
2022-11-26T09:57:15.952Z,79.09
2022-11-26T09:59:46.123Z,80.08
2022-11-26T10:02:13.372Z,79.81
2022-11-26T10:04:40.960Z,80.23
2022-11-26T10:07:38.658Z,80.34
2022-11-26T10:10:30.668Z,80.40
2022-11-26T10:13:19.148Z,79.84
2022-11-26T10:16:03.793Z,79.76
2022-11-26T10:18:58.033Z,78.91
2022-11-26T10:21:57.545Z,79.58
2022-11-26T10:24:28.575Z,80.25
2022-11-26T10:26:55.941Z,79.14
2022-11-26T10:29:39.100Z,79.62
2022-11-26T10:32:23.489Z,79.28
2022-11-26T10:34:52.523Z,79.31
2022-11-26T10:37:27.354Z,79.57
2022-11-26T10:40:25.856Z,79.25
2022-11-26T10:43:09.806Z,78.81
2022-11-26T10:45:43.086Z,78.57
2022-11-26T10:48:26.284Z,79.03
2022-11-26T10:51:06.507Z,78.82
2022-11-26T10:53:53.562Z,79.17
2022-11-26T10:56:42.321Z,79.29
2022-11-26T10:59:36.563Z,77.95
2022-11-26T11:02:23.192Z,78.23
2022-11-26T11:04:52.673Z,76.65
2022-11-26T11:07:38.921Z,77.39
2022-11-26T11:10:08.345Z,77.42
2022-11-26T11:12:55.830Z,78.20
2022-11-26T11:15:28.560Z,77.63
2022-11-26T11:18:05.976Z,77.59
2022-11-26T11:20:52.644Z,77.16
2022-11-26T11:23:40.091Z,78.23
2022-11-26T11:26:21.768Z,77.65
2022-11-26T11:28:51.699Z,77.87
2022-11-26T11:31:23.774Z,77.55
2022-11-26T11:33:51.329Z,78.06
2022-11-26T11:36:35.985Z,78.70
2022-11-26T11:39:04.153Z,77.23
2022-11-26T11:41:43.203Z,77.15
2022-11-26T11:44:36.011Z,76.79
2022-11-26T11:47:42.550Z,77.34
2022-11-26T11:50:18.219Z,77.05
2022-11-26T11:53:04.014Z,76.92
2022-11-26T11:55:52.272Z,77.35
2022-11-26T11:58:55.723Z,77.95
2022-11-26T12:01:25.079Z,78.42
2022-11-26T12:04:18.134Z,77.97
2022-11-26T12:07:16.077Z,78.02
2022-11-26T12:10:01.214Z,77.17
2022-11-26T12:12:38.541Z,77.11
2022-11-26T12:15:04.832Z,76.98
2022-11-26T12:17:43.798Z,78.01
2022-11-26T12:20:27.923Z,77.59
2022-11-26T12:23:34.924Z,77.12
2022-11-26T12:26:36.866Z,77.00
2022-11-26T12:29:06.232Z,77.67
2022-11-26T12:31:37.898Z,77.01
2022-11-26T12:34:12.574Z,77.19
2022-11-26T12:37:00.212Z,77.06
2022-11-26T12:39:41.871Z,75.99
2022-11-26T12:42:19.470Z,76.55
2022-11-26T12:44:51.740Z,76.55
2022-11-26T12:47:37.654Z,76.83
2022-11-26T12:50:30.200Z,76.55
2022-11-26T12:53:21.999Z,76.18
2022-11-26T12:55:56.497Z,76.29
2022-11-26T12:58:29.054Z,76.07
2022-11-26T13:00:56.836Z,77.00
2022-11-26T13:03:28.413Z,76.95
2022-11-26T13:06:19.410Z,76.99
2022-11-26T13:09:03.346Z,77.01
2022-11-26T13:11:48.231Z,77.66
2022-11-26T13:14:23.641Z,78.07
2022-11-26T13:17:08.977Z,78.72
2022-11-26T13:19:44.896Z,78.62
2022-11-26T13:22:49.031Z,78.82
2022-11-26T13:25:31.530Z,78.11
2022-11-26T13:28:17.578Z,78.57
2022-11-26T13:30:59.520Z,78.83
2022-11-26T13:33:35.112Z,78.97
2022-11-26T13:36:24.109Z,78.70
2022-11-26T13:38:59.333Z,78.91
2022-11-26T13:42:06.268Z,77.26
2022-11-26T13:45:23.198Z,77.69
2022-11-26T13:47:56.546Z,78.06
2022-11-26T13:50:28.811Z,77.48
2022-11-26T13:53:04.457Z,78.05
2022-11-26T13:55:41.243Z,77.28
2022-11-26T13:58:16.851Z,76.43
2022-11-26T14:00:43.402Z,75.91
2022-11-26T14:03:48.869Z,74.90
2022-11-26T14:06:15.403Z,75.80
2022-11-26T14:08:47.243Z,75.25
2022-11-26T14:11:45.573Z,75.02
2022-11-26T14:14:23.857Z,75.53
2022-11-26T14:17:02.501Z,74.87
2022-11-26T14:19:41.636Z,75.72
2022-11-26T14:22:30.222Z,75.89
2022-11-26T14:24:59.797Z,75.91
2022-11-26T14:27:52.551Z,76.09
2022-11-26T14:30:24.072Z,76.32
2022-11-26T14:32:53.167Z,75.87
2022-11-26T14:35:34.584Z,75.88
2022-11-26T14:38:03.706Z,75.52
2022-11-26T14:40:33.139Z,75.93
2022-11-26T14:43:17.452Z,76.14
2022-11-26T14:45:46.694Z,75.95
2022-11-26T14:48:28.649Z,76.26
2022-11-26T14:50:59.160Z,76.38
2022-11-26T14:53:30.373Z,76.52
2022-11-26T14:55:57.285Z,76.72
2022-11-26T14:58:36.546Z,77.01
2022-11-26T15:01:15.087Z,77.31
2022-11-26T15:03:42.215Z,76.76
2022-11-26T15:06:25.581Z,77.65
2022-11-26T15:09:26.757Z,77.24
2022-11-26T15:12:14.951Z,76.90
2022-11-26T15:14:54.824Z,76.91
2022-11-26T15:17:24.051Z,77.38
2022-11-26T15:19:52.569Z,77.63
2022-11-26T15:22:22.967Z,77.47
2022-11-26T15:24:53.293Z,77.99
2022-11-26T15:27:39.644Z,78.39
2022-11-26T15:30:49.810Z,77.98
2022-11-26T15:33:17.017Z,78.56
2022-11-26T15:35:43.813Z,79.20
2022-11-26T15:38:16.310Z,78.97
2022-11-26T15:41:14.084Z,79.30
2022-11-26T15:43:46.358Z,79.40
2022-11-26T15:46:35.268Z,79.75
2022-11-26T15:49:05.580Z,79.59
2022-11-26T15:51:42.036Z,79.88
2022-11-26T15:54:26.430Z,80.37
2022-11-26T15:57:07.712Z,80.04
2022-11-26T15:59:46.171Z,80.55
2022-11-26T16:02:24.631Z,80.20
2022-11-26T16:04:57.980Z,80.05
2022-11-26T16:07:30.054Z,80.19
2022-11-26T16:10:21.925Z,81.17
2022-11-26T16:13:11.323Z,80.07
2022-11-26T16:15:46.760Z,80.19
2022-11-26T16:18:20.042Z,80.25
2022-11-26T16:20:46.695Z,80.07
2022-11-26T16:23:20.909Z,79.64
2022-11-26T16:26:07.549Z,79.86
2022-11-26T16:28:33.970Z,79.32
2022-11-26T16:31:00.441Z,79.69
2022-11-26T16:33:28.265Z,80.31
2022-11-26T16:35:55.225Z,80.18
2022-11-26T16:38:24.980Z,80.00
2022-11-26T16:40:52.099Z,80.30
2022-11-26T16:43:18.866Z,80.73
2022-11-26T16:45:45.802Z,80.11
2022-11-26T16:48:30.500Z,80.19
2022-11-26T16:50:56.886Z,80.40
2022-11-26T16:53:23.504Z,80.41
2022-11-26T16:55:50.982Z,80.32
2022-11-26T16:58:27.529Z,79.00
2022-11-26T17:00:55.543Z,79.84
2022-11-26T17:03:25.166Z,80.17
2022-11-26T17:05:56.251Z,80.63
2022-11-26T17:08:22.990Z,79.98
2022-11-26T17:10:50.836Z,80.27
2022-11-26T17:13:18.156Z,80.56
2022-11-26T17:15:44.946Z,79.71
2022-11-26T17:18:20.172Z,80.03
2022-11-26T17:20:47.016Z,79.38
2022-11-26T17:23:14.183Z,78.90
2022-11-26T17:25:40.757Z,79.42
2022-11-26T17:28:14.466Z,80.27
2022-11-26T17:30:42.669Z,80.25
2022-11-26T17:33:10.387Z,79.70
2022-11-26T17:35:36.951Z,80.19
2022-11-26T17:38:10.059Z,79.68
2022-11-26T17:40:36.514Z,80.19
2022-11-26T17:43:02.880Z,79.99
2022-11-26T17:45:29.255Z,80.70
2022-11-26T17:47:55.711Z,80.91
2022-11-26T17:50:25.024Z,80.65
2022-11-26T17:52:51.755Z,80.28
2022-11-26T17:55:19.975Z,80.01
2022-11-26T17:57:46.393Z,80.44
2022-11-26T18:00:16.344Z,80.52
2022-11-26T18:02:43.749Z,79.73
2022-11-26T18:05:11.244Z,80.28
2022-11-26T18:07:38.418Z,79.94
2022-11-26T18:10:06.963Z,80.44
2022-11-26T18:12:33.964Z,80.38
2022-11-26T18:15:01.894Z,80.93
2022-11-26T18:17:28.355Z,80.66
2022-11-26T18:19:54.880Z,80.67
2022-11-26T18:22:24.078Z,81.03
2022-11-26T18:24:56.354Z,80.89
2022-11-26T18:27:27.286Z,81.07
2022-11-26T18:29:54.023Z,81.41
2022-11-26T18:32:21.170Z,81.14
2022-11-26T18:34:53.456Z,81.11
2022-11-26T18:37:19.867Z,80.97
2022-11-26T18:39:46.226Z,81.38
2022-11-26T18:44:59.848Z,81.12
2022-11-26T18:47:26.262Z,80.94
2022-11-26T18:49:53.179Z,81.29
2022-11-26T18:52:19.544Z,81.22
2022-11-26T18:54:45.906Z,80.87
2022-11-26T18:57:12.365Z,81.33
2022-11-26T18:59:39.069Z,81.70
2022-11-26T19:02:05.784Z,81.50
2022-11-26T19:04:32.988Z,81.13
2022-11-26T19:06:59.341Z,80.97
2022-11-26T19:09:25.801Z,80.79
2022-11-26T19:11:58.154Z,80.85
2022-11-26T19:14:24.541Z,80.57
2022-11-26T19:16:51.661Z,79.94
2022-11-26T19:19:18.325Z,79.94
2022-11-26T19:21:44.765Z,80.52
2022-11-26T19:24:12.448Z,80.33
2022-11-26T19:26:41.131Z,80.66
2022-11-26T19:29:09.017Z,80.18
2022-11-26T19:31:35.971Z,80.49
2022-11-26T19:34:09.833Z,80.85
2022-11-26T19:36:36.957Z,80.75
2022-11-26T19:39:05.469Z,81.12
2022-11-26T19:41:32.623Z,81.38
2022-11-26T19:44:00.576Z,81.54
2022-11-26T19:46:27.662Z,82.15
2022-11-26T19:48:55.417Z,82.35
2022-11-26T19:51:23.543Z,82.41
2022-11-26T19:53:51.839Z,83.04
2022-11-26T19:56:19.969Z,82.95
2022-11-26T19:58:46.644Z,83.79
2022-11-26T20:01:15.376Z,84.49
2022-11-26T20:03:42.564Z,83.26
2022-11-26T20:06:18.543Z,83.01
2022-11-26T20:08:46.110Z,81.83
2022-11-26T20:11:13.298Z,81.93
2022-11-26T20:13:41.597Z,82.23
2022-11-26T20:16:14.949Z,82.45
2022-11-26T20:18:41.655Z,82.44
2022-11-26T20:21:11.264Z,82.64
2022-11-26T20:23:37.960Z,82.29
2022-11-26T20:26:13.606Z,82.21
2022-11-26T20:28:39.947Z,81.96
2022-11-26T20:31:06.369Z,81.71
2022-11-26T20:33:34.482Z,82.02
2022-11-26T20:36:00.864Z,82.76
2022-11-26T20:38:27.216Z,82.06
2022-11-26T20:40:53.573Z,82.51
2022-11-26T20:43:19.940Z,82.43
2022-11-26T20:45:46.831Z,82.04
2022-11-26T20:48:13.237Z,82.57
2022-11-26T20:50:39.633Z,82.76
2022-11-26T20:53:06.016Z,82.49
2022-11-26T20:55:32.437Z,82.54
2022-11-26T20:57:58.797Z,82.32
2022-11-26T21:00:27.704Z,82.72
2022-11-26T21:02:54.447Z,82.68
2022-11-26T21:05:22.495Z,83.24
2022-11-26T21:07:50.754Z,83.48
2022-11-26T21:10:18.237Z,84.08
2022-11-26T21:12:44.609Z,84.06
2022-11-26T21:15:11.429Z,83.64
2022-11-26T21:17:37.894Z,83.50
2022-11-26T21:20:06.169Z,82.71
2022-11-26T21:22:32.710Z,82.93
2022-11-26T21:24:59.081Z,83.10
2022-11-26T21:27:25.437Z,83.58
2022-11-26T21:29:51.810Z,83.19
2022-11-26T21:32:18.163Z,83.34
2022-11-26T21:34:44.508Z,82.75
2022-11-26T21:37:10.848Z,82.70
2022-11-26T21:39:37.982Z,82.58
2022-11-26T21:42:04.523Z,82.48
2022-11-26T21:44:30.932Z,83.03
2022-11-26T21:46:57.354Z,82.83
2022-11-26T21:49:27.996Z,82.69
2022-11-26T21:51:54.331Z,82.39
2022-11-26T21:54:20.691Z,82.44
2022-11-26T21:56:47.070Z,82.51
2022-11-26T21:59:13.421Z,82.41
2022-11-26T22:01:40.264Z,81.97
2022-11-26T22:04:12.096Z,81.34
2022-11-26T22:06:38.855Z,81.38
2022-11-26T22:09:06.101Z,82.17
2022-11-26T22:11:38.082Z,82.13
2022-11-26T22:14:05.437Z,82.03
2022-11-26T22:16:31.980Z,82.48
2022-11-26T22:19:00.155Z,82.55
2022-11-26T22:21:32.521Z,82.38
2022-11-26T22:24:00.792Z,82.47
2022-11-26T22:26:28.213Z,81.94
2022-11-26T22:28:57.761Z,82.56
2022-11-26T22:31:29.370Z,82.37
2022-11-26T22:34:01.282Z,82.62
2022-11-26T22:36:28.262Z,82.04
2022-11-26T22:38:55.306Z,82.38
2022-11-26T22:41:22.956Z,81.99
2022-11-26T22:43:49.355Z,81.98
2022-11-26T22:46:18.212Z,82.39
2022-11-26T22:48:55.390Z,82.45
2022-11-26T22:51:22.929Z,82.62
2022-11-26T22:53:50.929Z,81.90
2022-11-26T22:56:18.556Z,82.58
2022-11-26T22:58:45.478Z,82.03
2022-11-26T23:01:26.143Z,82.03
2022-11-26T23:03:53.460Z,82.61
2022-11-26T23:06:21.911Z,82.36
2022-11-26T23:08:49.081Z,82.47
2022-11-26T23:11:17.346Z,82.98
2022-11-26T23:13:45.934Z,82.63
2022-11-26T23:16:12.984Z,82.95
2022-11-26T23:18:39.861Z,82.89
2022-11-26T23:21:14.759Z,82.83
2022-11-26T23:23:41.820Z,82.78
2022-11-26T23:26:10.876Z,82.56
2022-11-26T23:28:37.744Z,82.79
2022-11-26T23:31:06.874Z,82.52
2022-11-26T23:33:34.856Z,83.00
2022-11-26T23:36:01.886Z,82.40
2022-11-26T23:38:28.519Z,82.60
2022-11-26T23:40:56.815Z,82.31
2022-11-26T23:43:26.285Z,82.13
2022-11-26T23:46:15.381Z,82.00
2022-11-26T23:48:42.119Z,82.20
2022-11-26T23:51:11.558Z,81.73
2022-11-26T23:53:43.069Z,81.94
2022-11-26T23:56:21.311Z,81.58
2022-11-26T23:58:56.031Z,81.97
